sensor_id;sensor_type;location;lat;lon;timestamp;pressure;altitude;pressure_sealevel;temperature;humidity
34374;BME280;20637;55.770;37.592;2023-09-19T00:01:06;60176.38;;;-142.37;100.00
34374;BME280;20637;55.770;37.592;2023-09-19T00:03:34;60176.38;;;-142.37;100.00
34374;BME280;20637;55.770;37.592;2023-09-19T00:06:00;60176.38;;;-142.37;100.00
34374;BME280;20637;55.770;37.592;2023-09-19T00:08:26;60176.38;;;-142.37;100.00
34374;BME280;20637;55.770;37.592;2023-09-19T00:10:53;60176.38;;;-142.37;100.00
34374;BME280;20637;55.770;37.592;2023-09-19T00:13:20;60176.38;;;-142.37;100.00
34374;BME280;20637;55.770;37.592;2023-09-19T00:15:46;60176.38;;;-142.37;100.00
34374;BME280;20637;55.770;37.592;2023-09-19T00:18:15;60176.38;;;-142.37;100.00
34374;BME280;20637;55.770;37.592;2023-09-19T00:20:42;60176.38;;;-142.37;100.00
34374;BME280;20637;55.770;37.592;2023-09-19T00:23:08;60176.38;;;-142.37;100.00
34374;BME280;20637;55.770;37.592;2023-09-19T00:25:34;60176.38;;;-142.37;100.00
34374;BME280;20637;55.770;37.592;2023-09-19T00:28:00;60176.38;;;-142.37;100.00
34374;BME280;20637;55.770;37.592;2023-09-19T00:30:26;60176.38;;;-142.37;100.00
34374;BME280;20637;55.770;37.592;2023-09-19T00:32:52;60176.38;;;-142.37;100.00
34374;BME280;20637;55.770;37.592;2023-09-19T00:35:18;60176.38;;;-142.37;100.00
34374;BME280;20637;55.770;37.592;2023-09-19T00:37:49;60176.38;;;-142.37;100.00
34374;BME280;20637;55.770;37.592;2023-09-19T00:40:15;60176.38;;;-142.37;100.00
34374;BME280;20637;55.770;37.592;2023-09-19T00:42:41;60176.38;;;-142.37;100.00
34374;BME280;20637;55.770;37.592;2023-09-19T00:45:10;60176.38;;;-142.37;100.00
34374;BME280;20637;55.770;37.592;2023-09-19T00:47:48;60176.38;;;-142.37;100.00
34374;BME280;20637;55.770;37.592;2023-09-19T00:50:17;60176.38;;;-142.37;100.00
34374;BME280;20637;55.770;37.592;2023-09-19T00:52:44;60176.38;;;-142.37;100.00
34374;BME280;20637;55.770;37.592;2023-09-19T00:55:10;60176.38;;;-142.37;100.00
34374;BME280;20637;55.770;37.592;2023-09-19T00:57:37;60176.38;;;-142.37;100.00
34374;BME280;20637;55.770;37.592;2023-09-19T01:00:03;60176.38;;;-142.37;100.00
34374;BME280;20637;55.770;37.592;2023-09-19T01:02:31;60176.38;;;-142.37;100.00
34374;BME280;20637;55.770;37.592;2023-09-19T01:04:57;60176.38;;;-142.37;100.00
34374;BME280;20637;55.770;37.592;2023-09-19T01:07:23;60176.38;;;-142.37;100.00
34374;BME280;20637;55.770;37.592;2023-09-19T01:09:49;60176.38;;;-142.37;100.00
34374;BME280;20637;55.770;37.592;2023-09-19T01:12:16;60176.38;;;-142.37;100.00
34374;BME280;20637;55.770;37.592;2023-09-19T01:14:54;60176.38;;;-142.37;100.00
34374;BME280;20637;55.770;37.592;2023-09-19T01:17:30;60176.38;;;-142.37;100.00
34374;BME280;20637;55.770;37.592;2023-09-19T01:22:42;60176.38;;;-142.37;100.00
34374;BME280;20637;55.770;37.592;2023-09-19T01:30:27;60176.38;;;-142.37;100.00
34374;BME280;20637;55.770;37.592;2023-09-19T01:32:55;60176.38;;;-142.37;100.00
34374;BME280;20637;55.770;37.592;2023-09-19T01:35:22;60176.38;;;-142.37;100.00
34374;BME280;20637;55.770;37.592;2023-09-19T01:37:48;60176.38;;;-142.37;100.00
34374;BME280;20637;55.770;37.592;2023-09-19T01:40:14;60176.38;;;-142.37;100.00
34374;BME280;20637;55.770;37.592;2023-09-19T01:42:55;60176.38;;;-142.37;100.00
34374;BME280;20637;55.770;37.592;2023-09-19T01:45:37;60176.38;;;-142.37;100.00
34374;BME280;20637;55.770;37.592;2023-09-19T01:50:42;60176.38;;;-142.37;100.00
34374;BME280;20637;55.770;37.592;2023-09-19T01:55:49;60176.38;;;-142.37;100.00
34374;BME280;20637;55.770;37.592;2023-09-19T02:00:42;60176.38;;;-142.37;100.00
34374;BME280;20637;55.770;37.592;2023-09-19T02:03:10;60176.38;;;-142.37;100.00
34374;BME280;20637;55.770;37.592;2023-09-19T02:05:36;60176.38;;;-142.37;100.00
34374;BME280;20637;55.770;37.592;2023-09-19T02:08:03;60176.38;;;-142.37;100.00
34374;BME280;20637;55.770;37.592;2023-09-19T02:10:29;60176.38;;;-142.37;100.00
34374;BME280;20637;55.770;37.592;2023-09-19T02:12:54;60176.38;;;-142.37;100.00
34374;BME280;20637;55.770;37.592;2023-09-19T02:15:20;60176.38;;;-142.37;100.00
34374;BME280;20637;55.770;37.592;2023-09-19T02:17:45;60176.38;;;-142.37;100.00
34374;BME280;20637;55.770;37.592;2023-09-19T02:20:12;60176.38;;;-142.37;100.00
34374;BME280;20637;55.770;37.592;2023-09-19T02:22:40;60176.38;;;-142.37;100.00
34374;BME280;20637;55.770;37.592;2023-09-19T02:25:26;60176.38;;;-142.37;100.00
34374;BME280;20637;55.770;37.592;2023-09-19T02:27:52;60176.38;;;-142.37;100.00
34374;BME280;20637;55.770;37.592;2023-09-19T02:30:19;60176.38;;;-142.37;100.00
34374;BME280;20637;55.770;37.592;2023-09-19T02:32:46;60176.38;;;-142.37;100.00
34374;BME280;20637;55.770;37.592;2023-09-19T02:35:11;60176.38;;;-142.37;100.00
34374;BME280;20637;55.770;37.592;2023-09-19T02:37:37;60176.38;;;-142.37;100.00
34374;BME280;20637;55.770;37.592;2023-09-19T02:40:03;60176.38;;;-142.37;100.00
34374;BME280;20637;55.770;37.592;2023-09-19T02:42:32;60176.38;;;-142.37;100.00
34374;BME280;20637;55.770;37.592;2023-09-19T02:44:57;60176.38;;;-142.37;100.00
34374;BME280;20637;55.770;37.592;2023-09-19T02:47:23;60176.38;;;-142.37;100.00
34374;BME280;20637;55.770;37.592;2023-09-19T02:49:49;60176.38;;;-142.37;100.00
34374;BME280;20637;55.770;37.592;2023-09-19T02:52:14;60176.38;;;-142.37;100.00
34374;BME280;20637;55.770;37.592;2023-09-19T02:54:39;60176.38;;;-142.37;100.00
34374;BME280;20637;55.770;37.592;2023-09-19T02:57:05;60176.38;;;-142.37;100.00
34374;BME280;20637;55.770;37.592;2023-09-19T02:59:32;60176.38;;;-142.37;100.00
34374;BME280;20637;55.770;37.592;2023-09-19T03:01:57;60176.38;;;-142.37;100.00
34374;BME280;20637;55.770;37.592;2023-09-19T03:04:25;60176.38;;;-142.37;100.00
34374;BME280;20637;55.770;37.592;2023-09-19T03:06:52;60176.38;;;-142.37;100.00
34374;BME280;20637;55.770;37.592;2023-09-19T03:09:18;60176.38;;;-142.37;100.00
34374;BME280;20637;55.770;37.592;2023-09-19T03:11:44;60176.38;;;-142.37;100.00
34374;BME280;20637;55.770;37.592;2023-09-19T03:14:11;60176.38;;;-142.37;100.00
34374;BME280;20637;55.770;37.592;2023-09-19T03:16:37;60176.38;;;-142.37;100.00
34374;BME280;20637;55.770;37.592;2023-09-19T03:19:03;60176.38;;;-142.37;100.00
34374;BME280;20637;55.770;37.592;2023-09-19T03:21:30;60176.38;;;-142.37;100.00
34374;BME280;20637;55.770;37.592;2023-09-19T03:23:56;60176.38;;;-142.37;100.00
34374;BME280;20637;55.770;37.592;2023-09-19T03:26:21;60176.38;;;-142.37;100.00
34374;BME280;20637;55.770;37.592;2023-09-19T03:28:47;60176.38;;;-142.37;100.00
34374;BME280;20637;55.770;37.592;2023-09-19T03:31:12;60176.38;;;-142.37;100.00
34374;BME280;20637;55.770;37.592;2023-09-19T03:33:38;60176.38;;;-142.37;100.00
34374;BME280;20637;55.770;37.592;2023-09-19T03:36:04;60176.38;;;-142.37;100.00
34374;BME280;20637;55.770;37.592;2023-09-19T03:38:32;60176.38;;;-142.37;100.00
34374;BME280;20637;55.770;37.592;2023-09-19T03:40:59;60176.38;;;-142.37;100.00
34374;BME280;20637;55.770;37.592;2023-09-19T03:43:25;60176.38;;;-142.37;100.00
34374;BME280;20637;55.770;37.592;2023-09-19T03:45:51;60176.38;;;-142.37;100.00
34374;BME280;20637;55.770;37.592;2023-09-19T03:48:17;60176.38;;;-142.37;100.00
34374;BME280;20637;55.770;37.592;2023-09-19T03:50:43;60176.38;;;-142.37;100.00
34374;BME280;20637;55.770;37.592;2023-09-19T03:53:09;60176.38;;;-142.37;100.00
34374;BME280;20637;55.770;37.592;2023-09-19T03:55:35;60176.38;;;-142.37;100.00
34374;BME280;20637;55.770;37.592;2023-09-19T03:58:04;60176.38;;;-142.37;100.00
34374;BME280;20637;55.770;37.592;2023-09-19T04:00:30;60176.38;;;-142.37;100.00
34374;BME280;20637;55.770;37.592;2023-09-19T04:02:55;60176.38;;;-142.37;100.00
34374;BME280;20637;55.770;37.592;2023-09-19T04:05:22;60176.38;;;-142.37;100.00
34374;BME280;20637;55.770;37.592;2023-09-19T04:07:47;60176.38;;;-142.37;100.00
34374;BME280;20637;55.770;37.592;2023-09-19T04:10:13;60176.38;;;-142.37;100.00
34374;BME280;20637;55.770;37.592;2023-09-19T04:12:39;60176.38;;;-142.37;100.00
34374;BME280;20637;55.770;37.592;2023-09-19T04:15:06;60176.38;;;-142.37;100.00
34374;BME280;20637;55.770;37.592;2023-09-19T04:17:31;60176.38;;;-142.37;100.00
34374;BME280;20637;55.770;37.592;2023-09-19T04:20:00;60176.38;;;-142.37;100.00
34374;BME280;20637;55.770;37.592;2023-09-19T04:22:25;60176.38;;;-142.37;100.00
34374;BME280;20637;55.770;37.592;2023-09-19T04:24:51;60176.38;;;-142.37;100.00
34374;BME280;20637;55.770;37.592;2023-09-19T04:27:16;60176.38;;;-142.37;100.00
34374;BME280;20637;55.770;37.592;2023-09-19T04:29:42;60176.38;;;-142.37;100.00
34374;BME280;20637;55.770;37.592;2023-09-19T04:32:08;60176.38;;;-142.37;100.00
34374;BME280;20637;55.770;37.592;2023-09-19T04:34:34;60176.38;;;-142.37;100.00
34374;BME280;20637;55.770;37.592;2023-09-19T04:36:59;60176.38;;;-142.37;100.00
34374;BME280;20637;55.770;37.592;2023-09-19T04:39:26;60176.38;;;-142.37;100.00
34374;BME280;20637;55.770;37.592;2023-09-19T04:41:52;60176.38;;;-142.37;100.00
34374;BME280;20637;55.770;37.592;2023-09-19T04:44:18;60176.38;;;-142.37;100.00
34374;BME280;20637;55.770;37.592;2023-09-19T04:46:43;60176.38;;;-142.37;100.00
34374;BME280;20637;55.770;37.592;2023-09-19T04:49:09;60176.38;;;-142.37;100.00
34374;BME280;20637;55.770;37.592;2023-09-19T04:51:35;60176.38;;;-142.37;100.00
34374;BME280;20637;55.770;37.592;2023-09-19T04:54:01;60176.38;;;-142.37;100.00
34374;BME280;20637;55.770;37.592;2023-09-19T04:56:27;60176.38;;;-142.37;100.00
34374;BME280;20637;55.770;37.592;2023-09-19T04:58:53;60176.38;;;-142.37;100.00
34374;BME280;20637;55.770;37.592;2023-09-19T05:01:19;60176.38;;;-142.37;100.00
34374;BME280;20637;55.770;37.592;2023-09-19T05:03:47;60176.38;;;-142.37;100.00
34374;BME280;20637;55.770;37.592;2023-09-19T05:06:17;60176.38;;;-142.37;100.00
34374;BME280;20637;55.770;37.592;2023-09-19T05:08:43;60176.38;;;-142.37;100.00
34374;BME280;20637;55.770;37.592;2023-09-19T05:11:08;60176.38;;;-142.37;100.00
34374;BME280;20637;55.770;37.592;2023-09-19T05:13:34;60176.38;;;-142.37;100.00
34374;BME280;20637;55.770;37.592;2023-09-19T05:16:00;60176.38;;;-142.37;100.00
34374;BME280;20637;55.770;37.592;2023-09-19T05:18:27;60176.38;;;-142.37;100.00
34374;BME280;20637;55.770;37.592;2023-09-19T05:20:53;60176.38;;;-142.37;100.00
34374;BME280;20637;55.770;37.592;2023-09-19T05:23:19;60176.38;;;-142.37;100.00
34374;BME280;20637;55.770;37.592;2023-09-19T05:25:46;60176.38;;;-142.37;100.00
34374;BME280;20637;55.770;37.592;2023-09-19T05:28:11;60176.38;;;-142.37;100.00
34374;BME280;20637;55.770;37.592;2023-09-19T05:30:40;60176.38;;;-142.37;100.00
34374;BME280;20637;55.770;37.592;2023-09-19T05:33:06;60176.38;;;-142.37;100.00
34374;BME280;20637;55.770;37.592;2023-09-19T05:35:32;60176.38;;;-142.37;100.00
34374;BME280;20637;55.770;37.592;2023-09-19T05:37:58;60176.38;;;-142.37;100.00
34374;BME280;20637;55.770;37.592;2023-09-19T05:40:24;60176.38;;;-142.37;100.00
34374;BME280;20637;55.770;37.592;2023-09-19T05:42:49;60176.38;;;-142.37;100.00
34374;BME280;20637;55.770;37.592;2023-09-19T05:45:16;60176.38;;;-142.37;100.00
34374;BME280;20637;55.770;37.592;2023-09-19T05:47:47;60176.38;;;-142.37;100.00
34374;BME280;20637;55.770;37.592;2023-09-19T05:50:13;60176.38;;;-142.37;100.00
34374;BME280;20637;55.770;37.592;2023-09-19T05:52:40;60176.38;;;-142.37;100.00
34374;BME280;20637;55.770;37.592;2023-09-19T05:55:06;60176.38;;;-142.37;100.00
34374;BME280;20637;55.770;37.592;2023-09-19T05:57:33;60176.38;;;-142.37;100.00
34374;BME280;20637;55.770;37.592;2023-09-19T05:59:59;60176.38;;;-142.37;100.00
34374;BME280;20637;55.770;37.592;2023-09-19T06:02:24;60176.38;;;-142.37;100.00
34374;BME280;20637;55.770;37.592;2023-09-19T06:04:54;60176.38;;;-142.37;100.00
34374;BME280;20637;55.770;37.592;2023-09-19T06:07:21;60176.38;;;-142.37;100.00
34374;BME280;20637;55.770;37.592;2023-09-19T06:09:47;60176.38;;;-142.37;100.00
34374;BME280;20637;55.770;37.592;2023-09-19T06:12:12;60176.38;;;-142.37;100.00
34374;BME280;20637;55.770;37.592;2023-09-19T06:14:40;60176.38;;;-142.37;100.00
34374;BME280;20637;55.770;37.592;2023-09-19T06:17:06;60176.38;;;-142.37;100.00
34374;BME280;20637;55.770;37.592;2023-09-19T06:19:32;60176.38;;;-142.37;100.00
34374;BME280;20637;55.770;37.592;2023-09-19T06:21:58;60176.38;;;-142.37;100.00
34374;BME280;20637;55.770;37.592;2023-09-19T06:24:24;60176.38;;;-142.37;100.00
34374;BME280;20637;55.770;37.592;2023-09-19T06:26:50;60176.38;;;-142.37;100.00
34374;BME280;20637;55.770;37.592;2023-09-19T06:29:17;60176.38;;;-142.37;100.00
34374;BME280;20637;55.770;37.592;2023-09-19T06:31:43;60176.38;;;-142.37;100.00
34374;BME280;20637;55.770;37.592;2023-09-19T06:34:10;60176.38;;;-142.37;100.00
34374;BME280;20637;55.770;37.592;2023-09-19T06:36:35;60176.38;;;-142.37;100.00
34374;BME280;20637;55.770;37.592;2023-09-19T06:39:00;60176.38;;;-142.37;100.00
34374;BME280;20637;55.770;37.592;2023-09-19T06:41:26;60176.38;;;-142.37;100.00
34374;BME280;20637;55.770;37.592;2023-09-19T06:43:51;60176.38;;;-142.37;100.00
34374;BME280;20637;55.770;37.592;2023-09-19T06:46:20;60176.38;;;-142.37;100.00
34374;BME280;20637;55.770;37.592;2023-09-19T06:48:45;60176.38;;;-142.37;100.00
34374;BME280;20637;55.770;37.592;2023-09-19T06:51:13;60176.38;;;-142.37;100.00
34374;BME280;20637;55.770;37.592;2023-09-19T06:53:40;60176.38;;;-142.37;100.00
34374;BME280;20637;55.770;37.592;2023-09-19T06:56:06;100108.91;;;15.49;68.02
34374;BME280;20637;55.770;37.592;2023-09-19T06:58:32;100102.81;;;15.47;68.44
34374;BME280;20637;55.770;37.592;2023-09-19T07:00:57;100101.59;;;15.50;68.53
34374;BME280;20637;55.770;37.592;2023-09-19T07:03:22;100102.44;;;15.50;68.80
34374;BME280;20637;55.770;37.592;2023-09-19T07:05:51;100102.72;;;15.55;68.68
34374;BME280;20637;55.770;37.592;2023-09-19T07:08:17;100095.69;;;15.61;68.83
34374;BME280;20637;55.770;37.592;2023-09-19T07:10:45;100105.63;;;15.68;68.79
34374;BME280;20637;55.770;37.592;2023-09-19T07:13:13;100101.94;;;15.76;68.84
34374;BME280;20637;55.770;37.592;2023-09-19T07:15:42;100096.72;;;15.75;68.51
34374;BME280;20637;55.770;37.592;2023-09-19T07:18:14;100103.75;;;15.69;68.42
34374;BME280;20637;55.770;37.592;2023-09-19T07:20:41;100094.38;;;15.71;68.64
34374;BME280;20637;55.770;37.592;2023-09-19T07:23:14;100101.09;;;15.76;68.58
34374;BME280;20637;55.770;37.592;2023-09-19T07:25:40;100094.44;;;15.78;68.84
34374;BME280;20637;55.770;37.592;2023-09-19T07:28:06;60176.38;;;-142.37;100.00
34374;BME280;20637;55.770;37.592;2023-09-19T07:30:31;60176.38;;;-142.37;100.00
34374;BME280;20637;55.770;37.592;2023-09-19T07:32:56;60176.38;;;-142.37;100.00
34374;BME280;20637;55.770;37.592;2023-09-19T07:35:22;60176.38;;;-142.37;100.00
34374;BME280;20637;55.770;37.592;2023-09-19T07:37:48;60176.38;;;-142.37;100.00
34374;BME280;20637;55.770;37.592;2023-09-19T07:40:21;100096.06;;;16.08;68.52
34374;BME280;20637;55.770;37.592;2023-09-19T07:42:46;100087.94;;;16.15;68.49
34374;BME280;20637;55.770;37.592;2023-09-19T07:45:12;100079.88;;;16.22;68.14
34374;BME280;20637;55.770;37.592;2023-09-19T07:47:40;100069.16;;;16.20;68.08
34374;BME280;20637;55.770;37.592;2023-09-19T07:50:08;100072.72;;;16.20;68.31
34374;BME280;20637;55.770;37.592;2023-09-19T07:52:34;100073.56;;;16.21;68.23
34374;BME280;20637;55.770;37.592;2023-09-19T07:55:00;100076.66;;;16.18;68.27
34374;BME280;20637;55.770;37.592;2023-09-19T07:57:26;100069.78;;;16.22;68.35
34374;BME280;20637;55.770;37.592;2023-09-19T07:59:53;100070.91;;;16.28;68.62
34374;BME280;20637;55.770;37.592;2023-09-19T08:02:19;100072.25;;;16.38;68.30
34374;BME280;20637;55.770;37.592;2023-09-19T08:04:44;100073.03;;;16.53;68.30
34374;BME280;20637;55.770;37.592;2023-09-19T08:07:15;100065.53;;;16.55;67.87
34374;BME280;20637;55.770;37.592;2023-09-19T08:09:40;100070.66;;;16.65;67.93
34374;BME280;20637;55.770;37.592;2023-09-19T08:12:06;100058.56;;;16.74;67.91
34374;BME280;20637;55.770;37.592;2023-09-19T08:14:35;100062.84;;;16.83;67.93
34374;BME280;20637;55.770;37.592;2023-09-19T08:17:01;100051.72;;;16.85;67.28
34374;BME280;20637;55.770;37.592;2023-09-19T08:19:26;100052.09;;;16.75;67.54
34374;BME280;20637;55.770;37.592;2023-09-19T08:21:56;100052.88;;;16.69;67.62
34374;BME280;20637;55.770;37.592;2023-09-19T08:24:24;100052.63;;;16.64;67.43
34374;BME280;20637;55.770;37.592;2023-09-19T08:26:50;100051.22;;;16.53;67.54
34374;BME280;20637;55.770;37.592;2023-09-19T08:29:16;100052.66;;;16.49;67.61
34374;BME280;20637;55.770;37.592;2023-09-19T08:31:42;100054.16;;;16.52;68.07
34374;BME280;20637;55.770;37.592;2023-09-19T08:34:08;100043.91;;;16.54;67.98
34374;BME280;20637;55.770;37.592;2023-09-19T08:36:34;100045.88;;;16.60;67.96
34374;BME280;20637;55.770;37.592;2023-09-19T08:39:00;100041.13;;;16.68;68.01
34374;BME280;20637;55.770;37.592;2023-09-19T08:41:25;100042.41;;;16.73;67.98
34374;BME280;20637;55.770;37.592;2023-09-19T08:43:51;100043.69;;;16.77;67.83
34374;BME280;20637;55.770;37.592;2023-09-19T08:46:18;100032.19;;;16.81;67.79
34374;BME280;20637;55.770;37.592;2023-09-19T08:48:46;100028.88;;;16.86;67.81
34374;BME280;20637;55.770;37.592;2023-09-19T08:51:17;100020.06;;;16.92;67.60
34374;BME280;20637;55.770;37.592;2023-09-19T08:56:29;100019.75;;;17.00;67.57
34374;BME280;20637;55.770;37.592;2023-09-19T08:58:59;100014.28;;;17.00;67.55
34374;BME280;20637;55.770;37.592;2023-09-19T09:01:28;100028.31;;;16.97;67.32
34374;BME280;20637;55.770;37.592;2023-09-19T09:03:54;100014.28;;;17.00;67.90
34374;BME280;20637;55.770;37.592;2023-09-19T09:06:21;100014.13;;;17.08;67.32
34374;BME280;20637;55.770;37.592;2023-09-19T09:08:46;60176.38;;;-142.37;100.00
34374;BME280;20637;55.770;37.592;2023-09-19T09:11:13;60176.38;;;-142.37;100.00
34374;BME280;20637;55.770;37.592;2023-09-19T09:13:39;100028.53;;;17.30;67.10
34374;BME280;20637;55.770;37.592;2023-09-19T09:16:07;100040.50;;;17.35;67.20
34374;BME280;20637;55.770;37.592;2023-09-19T09:18:32;100040.75;;;17.40;70.48
34374;BME280;20637;55.770;37.592;2023-09-19T09:20:58;100036.38;;;17.46;67.02
34374;BME280;20637;55.770;37.592;2023-09-19T09:23:23;100033.69;;;17.52;67.36
34374;BME280;20637;55.770;37.592;2023-09-19T09:25:51;100027.25;;;17.60;66.98
34374;BME280;20637;55.770;37.592;2023-09-19T09:28:21;100013.38;;;17.61;66.94
34374;BME280;20637;55.770;37.592;2023-09-19T09:30:47;100014.88;;;17.64;67.13
34374;BME280;20637;55.770;37.592;2023-09-19T09:33:14;100014.22;;;17.69;66.83
34374;BME280;20637;55.770;37.592;2023-09-19T09:38:22;100016.56;;;17.72;66.93
34374;BME280;20637;55.770;37.592;2023-09-19T09:40:53;100007.13;;;17.74;66.57
34374;BME280;20637;55.770;37.592;2023-09-19T09:43:38;100011.75;;;17.80;66.76
34374;BME280;20637;55.770;37.592;2023-09-19T09:46:06;100009.47;;;17.84;67.04
34374;BME280;20637;55.770;37.592;2023-09-19T09:48:44;100016.41;;;17.93;66.74
34374;BME280;20637;55.770;37.592;2023-09-19T09:51:28;100011.19;;;17.98;66.48
34374;BME280;20637;55.770;37.592;2023-09-19T09:53:54;100008.88;;;18.01;66.48
34374;BME280;20637;55.770;37.592;2023-09-19T09:56:36;100002.78;;;18.06;66.59
34374;BME280;20637;55.770;37.592;2023-09-19T09:59:16;100004.47;;;18.07;66.44
34374;BME280;20637;55.770;37.592;2023-09-19T10:01:46;99997.56;;;18.11;66.17
34374;BME280;20637;55.770;37.592;2023-09-19T10:04:15;99993.97;;;18.17;66.24
34374;BME280;20637;55.770;37.592;2023-09-19T10:06:53;99992.72;;;18.33;66.32
34374;BME280;20637;55.770;37.592;2023-09-19T10:09:19;99993.56;;;18.46;65.94
34374;BME280;20637;55.770;37.592;2023-09-19T10:11:46;99981.59;;;18.47;65.76
34374;BME280;20637;55.770;37.592;2023-09-19T10:14:15;99975.91;;;18.49;65.64
34374;BME280;20637;55.770;37.592;2023-09-19T10:16:50;99971.69;;;18.46;65.57
34374;BME280;20637;55.770;37.592;2023-09-19T10:19:29;99961.84;;;18.45;65.80
34374;BME280;20637;55.770;37.592;2023-09-19T10:21:55;99970.44;;;18.42;65.70
34374;BME280;20637;55.770;37.592;2023-09-19T10:24:22;99970.66;;;18.41;65.43
34374;BME280;20637;55.770;37.592;2023-09-19T10:26:50;99965.63;;;18.38;65.75
34374;BME280;20637;55.770;37.592;2023-09-19T10:29:15;99959.94;;;18.39;65.53
34374;BME280;20637;55.770;37.592;2023-09-19T10:31:43;99962.44;;;18.47;65.59
34374;BME280;20637;55.770;37.592;2023-09-19T10:34:14;99963.31;;;18.54;65.08
34374;BME280;20637;55.770;37.592;2023-09-19T10:36:40;99957.22;;;18.59;65.11
34374;BME280;20637;55.770;37.592;2023-09-19T10:39:10;99948.59;;;18.69;65.00
34374;BME280;20637;55.770;37.592;2023-09-19T10:41:37;99955.72;;;18.76;64.54
34374;BME280;20637;55.770;37.592;2023-09-19T10:44:03;99954.44;;;18.85;64.66
34374;BME280;20637;55.770;37.592;2023-09-19T10:46:31;99949.56;;;18.94;64.44
34374;BME280;20637;55.770;37.592;2023-09-19T10:49:00;99952.50;;;18.99;64.53
34374;BME280;20637;55.770;37.592;2023-09-19T10:51:28;99947.22;;;19.04;64.48
34374;BME280;20637;55.770;37.592;2023-09-19T10:56:26;99934.75;;;19.21;64.12
34374;BME280;20637;55.770;37.592;2023-09-19T10:59:05;99938.28;;;19.28;64.04
34374;BME280;20637;55.770;37.592;2023-09-19T11:01:49;99938.28;;;19.28;63.90
34374;BME280;20637;55.770;37.592;2023-09-19T11:04:21;99942.91;;;19.34;64.03
34374;BME280;20637;55.770;37.592;2023-09-19T11:07:30;99932.38;;;19.38;63.48
34374;BME280;20637;55.770;37.592;2023-09-19T11:09:50;99941.19;;;19.40;63.67
34374;BME280;20637;55.770;37.592;2023-09-19T11:14:50;99933.34;;;19.57;63.79
34374;BME280;20637;55.770;37.592;2023-09-19T11:26:03;99928.59;;;19.77;63.60
34374;BME280;20637;55.770;37.592;2023-09-19T11:30:39;99924.53;;;19.86;63.68
34374;BME280;20637;55.770;37.592;2023-09-19T11:46:29;99904.09;;;20.13;63.04
34374;BME280;20637;55.770;37.592;2023-09-19T11:48:54;99905.97;;;20.13;63.17
34374;BME280;20637;55.770;37.592;2023-09-19T11:51:22;99895.66;;;20.15;63.17
34374;BME280;20637;55.770;37.592;2023-09-19T11:53:49;99905.72;;;20.21;63.11
34374;BME280;20637;55.770;37.592;2023-09-19T11:56:16;99900.41;;;20.26;63.10
34374;BME280;20637;55.770;37.592;2023-09-19T11:58:42;99890.44;;;20.31;63.15
34374;BME280;20637;55.770;37.592;2023-09-19T12:01:08;99896.75;;;20.38;63.09
34374;BME280;20637;55.770;37.592;2023-09-19T12:03:45;99883.16;;;20.43;62.83
34374;BME280;20637;55.770;37.592;2023-09-19T12:06:14;99885.06;;;20.43;62.74
34374;BME280;20637;55.770;37.592;2023-09-19T12:08:40;99877.00;;;20.48;62.99
34374;BME280;20637;55.770;37.592;2023-09-19T12:11:11;99865.00;;;20.49;62.88
34374;BME280;20637;55.770;37.592;2023-09-19T12:13:40;99871.25;;;20.56;62.60
34374;BME280;20637;55.770;37.592;2023-09-19T12:16:14;99869.56;;;20.55;62.54
34374;BME280;20637;55.770;37.592;2023-09-19T12:18:43;99867.44;;;20.57;62.80
34374;BME280;20637;55.770;37.592;2023-09-19T12:21:22;99862.72;;;20.64;62.81
34374;BME280;20637;55.770;37.592;2023-09-19T12:26:47;99839.59;;;20.90;62.55
34374;BME280;20637;55.770;37.592;2023-09-19T12:34:35;99844.41;;;20.95;62.52
34374;BME280;20637;55.770;37.592;2023-09-19T12:39:31;99836.88;;;21.08;62.20
34374;BME280;20637;55.770;37.592;2023-09-19T12:41:57;99836.25;;;21.06;62.37
34374;BME280;20637;55.770;37.592;2023-09-19T12:44:22;99824.19;;;21.07;62.44
34374;BME280;20637;55.770;37.592;2023-09-19T12:46:50;99827.78;;;21.08;62.21
34374;BME280;20637;55.770;37.592;2023-09-19T12:49:16;99831.38;;;21.08;62.23
34374;BME280;20637;55.770;37.592;2023-09-19T12:51:42;99827.53;;;21.09;62.28
34374;BME280;20637;55.770;37.592;2023-09-19T12:54:08;99818.47;;;21.09;62.28
34374;BME280;20637;55.770;37.592;2023-09-19T12:56:42;99827.31;;;21.11;62.38
34374;BME280;20637;55.770;37.592;2023-09-19T12:59:12;99813.22;;;21.07;62.22
34374;BME280;20637;55.770;37.592;2023-09-19T13:01:39;99816.44;;;21.04;62.39
34374;BME280;20637;55.770;37.592;2023-09-19T13:06:47;99814.47;;;21.11;62.65
34374;BME280;20637;55.770;37.592;2023-09-19T13:09:14;99808.50;;;21.14;62.32
34374;BME280;20637;55.770;37.592;2023-09-19T13:11:40;99804.34;;;21.12;62.27
34374;BME280;20637;55.770;37.592;2023-09-19T13:14:15;99808.56;;;21.08;62.50
34374;BME280;20637;55.770;37.592;2023-09-19T13:22:00;99797.81;;;21.06;62.33
34374;BME280;20637;55.770;37.592;2023-09-19T13:24:26;99788.38;;;21.02;62.21
34374;BME280;20637;55.770;37.592;2023-09-19T13:26:53;99797.66;;;21.01;62.40
34374;BME280;20637;55.770;37.592;2023-09-19T13:29:18;99793.03;;;21.02;62.61
34374;BME280;20637;55.770;37.592;2023-09-19T13:31:50;99796.38;;;21.04;62.60
34374;BME280;20637;55.770;37.592;2023-09-19T13:34:16;99786.84;;;21.06;62.60
34374;BME280;20637;55.770;37.592;2023-09-19T13:36:43;99788.06;;;21.10;62.52
34374;BME280;20637;55.770;37.592;2023-09-19T13:39:08;99784.28;;;21.11;62.51
34374;BME280;20637;55.770;37.592;2023-09-19T13:41:47;99780.66;;;21.11;62.35